sensor_id;sensor_type;location;lat;lon;timestamp;pressure;altitude;pressure_sealevel;temperature;humidity
22862;BME280;11598;50.652;6.172;2023-03-01T00:09:30;97514.63;;;-3.22;74.84
22862;BME280;11598;50.652;6.172;2023-03-01T00:19:31;97516.31;;;-3.29;74.71
22862;BME280;11598;50.652;6.172;2023-03-01T00:29:32;97494.28;;;-3.34;75.31
22862;BME280;11598;50.652;6.172;2023-03-01T00:39:32;97495.19;;;-3.45;75.54
22862;BME280;11598;50.652;6.172;2023-03-01T00:49:33;97493.50;;;-3.52;75.62
22862;BME280;11598;50.652;6.172;2023-03-01T00:59:33;97494.31;;;-3.48;75.56
22862;BME280;11598;50.652;6.172;2023-03-01T01:09:35;97503.66;;;-3.43;75.13
22862;BME280;11598;50.652;6.172;2023-03-01T01:19:35;97488.38;;;-3.30;74.71
22862;BME280;11598;50.652;6.172;2023-03-01T01:29:36;97473.09;;;-3.27;74.48
22862;BME280;11598;50.652;6.172;2023-03-01T01:39:36;97465.50;;;-3.30;74.79
22862;BME280;11598;50.652;6.172;2023-03-01T01:49:48;97463.81;;;-3.37;74.84
22862;BME280;11598;50.652;6.172;2023-03-01T01:59:52;97447.75;;;-3.38;75.05
22862;BME280;11598;50.652;6.172;2023-03-01T02:09:54;97435.88;;;-3.37;74.93
22862;BME280;11598;50.652;6.172;2023-03-01T02:20:16;97426.59;;;-3.46;75.29
22862;BME280;11598;50.652;6.172;2023-03-01T02:30:20;97424.94;;;-3.61;75.94
22862;BME280;11598;50.652;6.172;2023-03-01T02:40:21;97409.75;;;-3.78;76.60
22862;BME280;11598;50.652;6.172;2023-03-01T03:00:35;97398.81;;;-4.08;77.81
22862;BME280;11598;50.652;6.172;2023-03-01T03:10:40;97391.22;;;-4.23;78.26
22862;BME280;11598;50.652;6.172;2023-03-01T03:20:42;97392.91;;;-4.40;79.07
22862;BME280;11598;50.652;6.172;2023-03-01T03:30:43;97392.06;;;-4.33;79.15
22862;BME280;11598;50.652;6.172;2023-03-01T03:40:46;97379.38;;;-4.19;79.21
22862;BME280;11598;50.652;6.172;2023-03-01T03:50:49;97382.75;;;-4.11;78.80
22862;BME280;11598;50.652;6.172;2023-03-01T04:00:52;97361.63;;;-4.18;79.22
22862;BME280;11598;50.652;6.172;2023-03-01T04:10:58;97355.69;;;-4.26;80.05
22862;BME280;11598;50.652;6.172;2023-03-01T04:20:59;97359.09;;;-4.36;80.50
22862;BME280;11598;50.652;6.172;2023-03-01T04:31:07;97357.41;;;-4.43;80.34
22862;BME280;11598;50.652;6.172;2023-03-01T04:41:19;97333.75;;;-4.50;80.77
22862;BME280;11598;50.652;6.172;2023-03-01T04:51:20;97321.06;;;-4.56;81.30
22862;BME280;11598;50.652;6.172;2023-03-01T05:01:21;97327.84;;;-4.60;81.50
22862;BME280;11598;50.652;6.172;2023-03-01T05:11:22;97337.13;;;-4.73;82.15
22862;BME280;11598;50.652;6.172;2023-03-01T05:21:22;97321.09;;;-4.89;82.86
22862;BME280;11598;50.652;6.172;2023-03-01T05:31:22;97318.53;;;-4.95;83.36
22862;BME280;11598;50.652;6.172;2023-03-01T05:41:23;97315.16;;;-4.92;83.46
22862;BME280;11598;50.652;6.172;2023-03-01T05:51:23;97316.84;;;-5.05;83.98
22862;BME280;11598;50.652;6.172;2023-03-01T06:01:24;97326.13;;;-5.16;84.28
22862;BME280;11598;50.652;6.172;2023-03-01T06:11:24;97332.03;;;-5.19;84.56
22862;BME280;11598;50.652;6.172;2023-03-01T06:21:25;97330.34;;;-5.24;84.93
22862;BME280;11598;50.652;6.172;2023-03-01T06:31:25;97319.34;;;-5.36;85.44
22862;BME280;11598;50.652;6.172;2023-03-01T06:41:25;97314.25;;;-5.40;85.96
22862;BME280;11598;50.652;6.172;2023-03-01T06:51:26;97305.00;;;-5.29;86.15
22862;BME280;11598;50.652;6.172;2023-03-01T07:01:26;97298.28;;;-4.70;87.37
22862;BME280;11598;50.652;6.172;2023-03-01T07:11:27;97303.81;;;-3.53;86.11
22862;BME280;11598;50.652;6.172;2023-03-01T07:21:27;97288.59;;;-2.39;82.12
22862;BME280;11598;50.652;6.172;2023-03-01T07:31:28;97286.72;;;-1.52;77.64
22862;BME280;11598;50.652;6.172;2023-03-01T07:41:29;97283.53;;;-0.05;72.87
22862;BME280;11598;50.652;6.172;2023-03-01T07:51:29;97283.56;;;-1.69;76.16
22862;BME280;11598;50.652;6.172;2023-03-01T08:01:30;97285.94;;;-2.29;77.53
22862;BME280;11598;50.652;6.172;2023-03-01T08:11:30;97281.06;;;-2.51;77.70
22862;BME280;11598;50.652;6.172;2023-03-01T08:21:31;97273.34;;;-2.42;78.55
22862;BME280;11598;50.652;6.172;2023-03-01T08:31:36;97277.28;;;-2.15;78.31
22862;BME280;11598;50.652;6.172;2023-03-01T08:41:38;97275.28;;;-1.86;77.64
22862;BME280;11598;50.652;6.172;2023-03-01T08:51:39;97282.81;;;-1.79;77.01
22862;BME280;11598;50.652;6.172;2023-03-01T09:01:39;97260.59;;;-1.64;76.78
22862;BME280;11598;50.652;6.172;2023-03-01T09:11:44;97249.09;;;-1.34;75.76
22862;BME280;11598;50.652;6.172;2023-03-01T09:21:50;97254.56;;;-1.01;74.48
22862;BME280;11598;50.652;6.172;2023-03-01T09:31:53;97253.28;;;-0.74;72.74
22862;BME280;11598;50.652;6.172;2023-03-01T09:42:04;97246.84;;;-0.47;71.26
22862;BME280;11598;50.652;6.172;2023-03-01T09:52:29;97248.94;;;-0.21;69.99
22862;BME280;11598;50.652;6.172;2023-03-01T10:02:41;97254.09;;;-0.24;68.23
22862;BME280;11598;50.652;6.172;2023-03-01T10:12:44;97246.00;;;-0.03;67.36
22862;BME280;11598;50.652;6.172;2023-03-01T10:22:45;97240.84;;;0.01;66.19
22862;BME280;11598;50.652;6.172;2023-03-01T10:32:51;97226.94;;;0.14;65.18
22862;BME280;11598;50.652;6.172;2023-03-01T10:42:52;97224.09;;;0.28;64.35
22862;BME280;11598;50.652;6.172;2023-03-01T10:52:59;97219.69;;;0.36;64.31
22862;BME280;11598;50.652;6.172;2023-03-01T11:03:15;97204.50;;;0.66;63.31
22862;BME280;11598;50.652;6.172;2023-03-01T11:13:18;97195.19;;;0.63;61.83
22862;BME280;11598;50.652;6.172;2023-03-01T11:23:20;97169.97;;;0.85;61.41
22862;BME280;11598;50.652;6.172;2023-03-01T12:24:37;97101.44;;;1.90;58.32
22862;BME280;11598;50.652;6.172;2023-03-01T12:55:36;97112.06;;;1.76;59.30
22862;BME280;11598;50.652;6.172;2023-03-01T13:15:50;97093.16;;;1.80;58.69
22862;BME280;11598;50.652;6.172;2023-03-01T13:36:02;97092.06;;;1.59;61.66
22862;BME280;11598;50.652;6.172;2023-03-01T13:46:10;97069.97;;;1.55;61.61
22862;BME280;11598;50.652;6.172;2023-03-01T13:56:15;97074.00;;;1.64;61.03
22862;BME280;11598;50.652;6.172;2023-03-01T14:06:20;97069.69;;;1.66;60.94
22862;BME280;11598;50.652;6.172;2023-03-01T14:26:54;97056.19;;;1.89;59.43
22862;BME280;11598;50.652;6.172;2023-03-01T14:36:54;97048.31;;;1.95;59.13
22862;BME280;11598;50.652;6.172;2023-03-01T14:46:55;97033.31;;;2.11;59.92
22862;BME280;11598;50.652;6.172;2023-03-01T14:57:00;97026.31;;;2.16;59.25
22862;BME280;11598;50.652;6.172;2023-03-01T15:07:01;97016.16;;;2.13;56.48
22862;BME280;11598;50.652;6.172;2023-03-01T15:17:13;96993.91;;;2.14;56.62
22862;BME280;11598;50.652;6.172;2023-03-01T15:27:20;96990.34;;;2.19;56.68
22862;BME280;11598;50.652;6.172;2023-03-01T15:37:45;96990.38;;;2.18;56.41
22862;BME280;11598;50.652;6.172;2023-03-01T15:48:00;96994.06;;;2.09;56.77
22862;BME280;11598;50.652;6.172;2023-03-01T15:58:15;96990.09;;;2.00;57.34
22862;BME280;11598;50.652;6.172;2023-03-01T16:08:18;96985.47;;;1.83;58.21
22862;BME280;11598;50.652;6.172;2023-03-01T16:18:18;96968.69;;;1.75;58.97
22862;BME280;11598;50.652;6.172;2023-03-01T16:28:20;96949.47;;;1.60;59.52
22862;BME280;11598;50.652;6.172;2023-03-01T16:38:22;96965.00;;;1.55;59.72
22862;BME280;11598;50.652;6.172;2023-03-01T16:48:22;96967.00;;;1.45;60.26
22862;BME280;11598;50.652;6.172;2023-03-01T16:58:23;96971.75;;;1.30;61.06
22862;BME280;11598;50.652;6.172;2023-03-01T17:30:25;96970.72;;;0.74;63.77
22862;BME280;11598;50.652;6.172;2023-03-01T17:40:25;96975.47;;;0.57;64.45
22862;BME280;11598;50.652;6.172;2023-03-01T17:50:26;96981.88;;;0.39;65.46
22862;BME280;11598;50.652;6.172;2023-03-01T18:00:27;96981.38;;;0.26;66.34
22862;BME280;11598;50.652;6.172;2023-03-01T18:10:28;96980.88;;;0.12;66.76
22862;BME280;11598;50.652;6.172;2023-03-01T18:20:28;96970.81;;;0.04;67.27
22862;BME280;11598;50.652;6.172;2023-03-01T18:30:29;96970.25;;;-0.07;67.53
22862;BME280;11598;50.652;6.172;2023-03-01T18:40:31;96973.97;;;-0.20;67.88
22862;BME280;11598;50.652;6.172;2023-03-01T18:50:32;96965.59;;;-0.26;67.77
22862;BME280;11598;50.652;6.172;2023-03-01T19:00:33;96946.84;;;-0.26;67.70
22862;BME280;11598;50.652;6.172;2023-03-01T19:10:33;96951.28;;;-0.33;67.42
22862;BME280;11598;50.652;6.172;2023-03-01T19:20:33;96943.75;;;-0.39;67.58
22862;BME280;11598;50.652;6.172;2023-03-01T19:30:34;96946.50;;;-0.47;67.64
22862;BME280;11598;50.652;6.172;2023-03-01T19:40:35;96943.16;;;-0.50;67.66
22862;BME280;11598;50.652;6.172;2023-03-01T19:50:35;96945.81;;;-0.55;67.78
22862;BME280;11598;50.652;6.172;2023-03-01T20:00:39;96919.69;;;-0.65;68.08
22862;BME280;11598;50.652;6.172;2023-03-01T20:10:39;96917.84;;;-0.59;67.63
22862;BME280;11598;50.652;6.172;2023-03-01T20:20:40;96910.19;;;-0.58;67.40
22862;BME280;11598;50.652;6.172;2023-03-01T20:30:41;96907.69;;;-0.61;67.49
22862;BME280;11598;50.652;6.172;2023-03-01T20:40:41;96919.91;;;-0.75;67.69
22862;BME280;11598;50.652;6.172;2023-03-01T20:50:42;96920.88;;;-0.81;67.71
22862;BME280;11598;50.652;6.172;2023-03-01T21:00:42;96925.34;;;-0.89;67.65
22862;BME280;11598;50.652;6.172;2023-03-01T21:10:48;96920.22;;;-0.89;67.04
22862;BME280;11598;50.652;6.172;2023-03-01T21:20:49;96937.28;;;-0.91;66.75
22862;BME280;11598;50.652;6.172;2023-03-01T21:30:49;96916.34;;;-1.07;67.28
22862;BME280;11598;50.652;6.172;2023-03-01T21:40:49;96927.47;;;-1.11;67.43
22862;BME280;11598;50.652;6.172;2023-03-01T21:50:54;96914.91;;;-1.19;67.69
22862;BME280;11598;50.652;6.172;2023-03-01T22:00:55;96918.47;;;-1.28;67.63
22862;BME280;11598;50.652;6.172;2023-03-01T22:10:55;96907.50;;;-1.31;67.74
22862;BME280;11598;50.652;6.172;2023-03-01T22:20:56;96900.19;;;-1.48;68.23
22862;BME280;11598;50.652;6.172;2023-03-01T22:30:56;96902.97;;;-1.60;68.30
22862;BME280;11598;50.652;6.172;2023-03-01T22:40:58;96887.66;;;-1.59;68.00
22862;BME280;11598;50.652;6.172;2023-03-01T22:50:58;96897.19;;;-1.68;68.64
22862;BME280;11598;50.652;6.172;2023-03-01T23:00:59;96892.41;;;-1.85;68.96
22862;BME280;11598;50.652;6.172;2023-03-01T23:10:59;96884.81;;;-1.88;69.13
22862;BME280;11598;50.652;6.172;2023-03-01T23:21:06;96884.78;;;-1.87;68.93
22862;BME280;11598;50.652;6.172;2023-03-01T23:31:12;96886.66;;;-1.97;69.49
22862;BME280;11598;50.652;6.172;2023-03-01T23:41:16;96889.97;;;-1.92;69.12
22862;BME280;11598;50.652;6.172;2023-03-01T23:51:17;96883.66;;;-1.72;68.53
